sensor_id;sensor_type;location;lat;lon;timestamp;temperature;humidity
4209;DHT22;36320;48.860;2.380;2023-03-19T09:04:08;17.40;73.40
4209;DHT22;36320;48.860;2.380;2023-03-19T09:06:38;17.30;73.50
4209;DHT22;36320;48.860;2.380;2023-03-19T09:09:05;16.90;73.40
4209;DHT22;36320;48.860;2.380;2023-03-19T09:11:38;16.80;74.80
4209;DHT22;36320;48.860;2.380;2023-03-19T09:14:03;16.60;74.40
4209;DHT22;36320;48.860;2.380;2023-03-19T09:16:29;16.60;74.80
4209;DHT22;36320;48.860;2.380;2023-03-19T09:18:55;16.50;74.60
4209;DHT22;36320;48.860;2.380;2023-03-19T09:21:24;16.20;75.40
4209;DHT22;36320;48.860;2.380;2023-03-19T09:23:50;15.70;75.20
4209;DHT22;36320;48.860;2.380;2023-03-19T09:26:17;15.90;75.90
4209;DHT22;36320;48.860;2.380;2023-03-19T09:28:42;15.80;75.90
4209;DHT22;36320;48.860;2.380;2023-03-19T09:31:09;15.80;75.90
4209;DHT22;36320;48.860;2.380;2023-03-19T09:33:36;15.90;75.90
4209;DHT22;36320;48.860;2.380;2023-03-19T09:36:02;15.80;75.10
4209;DHT22;36320;48.860;2.380;2023-03-19T09:38:32;15.90;75.60
4209;DHT22;36320;48.860;2.380;2023-03-19T09:44:04;15.90;75.60
4209;DHT22;36320;48.860;2.380;2023-03-19T09:49:37;15.90;75.40
4209;DHT22;36320;48.860;2.380;2023-03-19T09:57:48;16.00;75.50
4209;DHT22;36320;48.860;2.380;2023-03-19T10:02:42;15.90;75.30
4209;DHT22;36320;48.860;2.380;2023-03-19T10:05:18;16.00;75.30
4209;DHT22;36320;48.860;2.380;2023-03-19T10:15:46;16.10;75.00
4209;DHT22;36320;48.860;2.380;2023-03-19T10:18:27;15.90;75.50
4209;DHT22;36320;48.860;2.380;2023-03-19T10:21:10;15.90;76.30
4209;DHT22;36320;48.860;2.380;2023-03-19T10:24:11;15.90;76.80
4209;DHT22;36320;48.860;2.380;2023-03-19T10:26:38;16.00;77.60
4209;DHT22;36320;48.860;2.380;2023-03-19T10:29:10;16.00;78.10
4209;DHT22;36320;48.860;2.380;2023-03-19T10:31:52;15.80;78.60
4209;DHT22;36320;48.860;2.380;2023-03-19T10:34:27;15.80;79.50
4209;DHT22;36320;48.860;2.380;2023-03-19T10:37:11;16.10;80.60
4209;DHT22;36320;48.860;2.380;2023-03-19T10:39:41;15.90;81.00
4209;DHT22;36320;48.860;2.380;2023-03-19T10:45:25;15.60;80.70
4209;DHT22;36320;48.860;2.380;2023-03-19T10:47:52;15.60;80.70
4209;DHT22;36320;48.860;2.380;2023-03-19T10:50:45;15.60;80.50
4209;DHT22;36320;48.860;2.380;2023-03-19T10:55:52;15.40;80.00
4209;DHT22;36320;48.860;2.380;2023-03-19T10:58:26;15.90;80.30
4209;DHT22;36320;48.860;2.380;2023-03-19T11:01:05;16.10;79.70
4209;DHT22;36320;48.860;2.380;2023-03-19T11:04:10;16.00;79.00
4209;DHT22;36320;48.860;2.380;2023-03-19T11:06:35;16.10;78.60
4209;DHT22;36320;48.860;2.380;2023-03-19T11:11:43;15.30;78.10
4209;DHT22;36320;48.860;2.380;2023-03-19T11:14:15;14.50;76.80
4209;DHT22;36320;48.860;2.380;2023-03-19T11:19:33;14.10;77.10
4209;DHT22;36320;48.860;2.380;2023-03-19T11:24:39;14.10;75.30
4209;DHT22;36320;48.860;2.380;2023-03-19T11:27:08;12.10;73.40
4209;DHT22;36320;48.860;2.380;2023-03-19T11:29:41;13.90;76.30
4209;DHT22;36320;48.860;2.380;2023-03-19T11:35:19;13.90;76.90
4209;DHT22;36320;48.860;2.380;2023-03-19T11:40:41;14.70;76.90
4209;DHT22;36320;48.860;2.380;2023-03-19T11:45:48;15.40;75.10
4209;DHT22;36320;48.860;2.380;2023-03-19T11:54:10;16.00;72.70
4209;DHT22;36320;48.860;2.380;2023-03-19T11:56:49;16.00;72.90
4209;DHT22;36320;48.860;2.380;2023-03-19T12:04:56;16.30;71.30
4209;DHT22;36320;48.860;2.380;2023-03-19T12:07:47;15.50;69.60
4209;DHT22;36320;48.860;2.380;2023-03-19T12:16:15;14.80;70.10
4209;DHT22;36320;48.860;2.380;2023-03-19T12:19:25;14.80;70.10
4209;DHT22;36320;48.860;2.380;2023-03-19T12:28:25;13.40;66.50
4209;DHT22;36320;48.860;2.380;2023-03-19T12:30:40;15.70;68.60
4209;DHT22;36320;48.860;2.380;2023-03-19T12:35:47;15.60;64.30
4209;DHT22;36320;48.860;2.380;2023-03-19T12:40:58;16.00;64.40
4209;DHT22;36320;48.860;2.380;2023-03-19T12:43:48;16.60;64.30
4209;DHT22;36320;48.860;2.380;2023-03-19T12:49:38;17.40;62.90
4209;DHT22;36320;48.860;2.380;2023-03-19T12:55:17;17.10;62.40
4209;DHT22;36320;48.860;2.380;2023-03-19T12:57:51;16.80;62.10
4209;DHT22;36320;48.860;2.380;2023-03-19T13:05:30;15.90;62.10
4209;DHT22;36320;48.860;2.380;2023-03-19T13:08:06;15.70;61.40
4209;DHT22;36320;48.860;2.380;2023-03-19T13:10:36;15.70;61.10
4209;DHT22;36320;48.860;2.380;2023-03-19T13:15:53;15.60;59.90
4209;DHT22;36320;48.860;2.380;2023-03-19T13:18:42;15.30;60.90
4209;DHT22;36320;48.860;2.380;2023-03-19T13:21:22;15.40;61.70
4209;DHT22;36320;48.860;2.380;2023-03-19T13:26:38;15.40;60.80
4209;DHT22;36320;48.860;2.380;2023-03-19T13:29:18;15.30;59.90
4209;DHT22;36320;48.860;2.380;2023-03-19T13:31:44;15.30;59.50
4209;DHT22;36320;48.860;2.380;2023-03-19T13:34:24;15.50;59.20
4209;DHT22;36320;48.860;2.380;2023-03-19T13:37:00;15.80;59.40
4209;DHT22;36320;48.860;2.380;2023-03-19T13:39:28;15.80;59.10
4209;DHT22;36320;48.860;2.380;2023-03-19T13:44:41;16.00;58.60
4209;DHT22;36320;48.860;2.380;2023-03-19T14:03:40;15.50;56.70
4209;DHT22;36320;48.860;2.380;2023-03-19T14:06:38;15.50;56.80
4209;DHT22;36320;48.860;2.380;2023-03-19T14:09:26;15.20;56.80
4209;DHT22;36320;48.860;2.380;2023-03-19T14:11:53;15.40;57.40
4209;DHT22;36320;48.860;2.380;2023-03-19T14:14:21;15.00;57.60
4209;DHT22;36320;48.860;2.380;2023-03-19T14:16:48;15.60;58.70
4209;DHT22;36320;48.860;2.380;2023-03-19T14:19:19;15.50;59.00
4209;DHT22;36320;48.860;2.380;2023-03-19T14:22:09;15.40;58.90
4209;DHT22;36320;48.860;2.380;2023-03-19T14:24:54;15.50;59.10
4209;DHT22;36320;48.860;2.380;2023-03-19T14:27:27;15.50;58.70
4209;DHT22;36320;48.860;2.380;2023-03-19T14:30:02;15.90;58.90
4209;DHT22;36320;48.860;2.380;2023-03-19T14:41:04;16.50;57.60
4209;DHT22;36320;48.860;2.380;2023-03-19T14:46:25;16.00;56.90
4209;DHT22;36320;48.860;2.380;2023-03-19T14:51:47;15.80;56.80
4209;DHT22;36320;48.860;2.380;2023-03-19T14:54:59;15.70;56.10
4209;DHT22;36320;48.860;2.380;2023-03-19T14:57:30;15.70;55.90
4209;DHT22;36320;48.860;2.380;2023-03-19T15:05:31;16.60;55.30
4209;DHT22;36320;48.860;2.380;2023-03-19T15:08:02;16.70;55.30
4209;DHT22;36320;48.860;2.380;2023-03-19T15:18:36;16.80;54.40
4209;DHT22;36320;48.860;2.380;2023-03-19T15:21:03;16.60;54.40
4209;DHT22;36320;48.860;2.380;2023-03-19T15:23:48;16.80;54.80
4209;DHT22;36320;48.860;2.380;2023-03-19T15:26:13;16.90;54.60
4209;DHT22;36320;48.860;2.380;2023-03-19T15:28:45;16.60;54.20
4209;DHT22;36320;48.860;2.380;2023-03-19T15:31:12;16.30;54.70
4209;DHT22;36320;48.860;2.380;2023-03-19T15:33:40;16.40;55.10
4209;DHT22;36320;48.860;2.380;2023-03-19T15:36:07;16.30;55.20
4209;DHT22;36320;48.860;2.380;2023-03-19T15:38:43;16.30;55.70
4209;DHT22;36320;48.860;2.380;2023-03-19T15:41:11;16.30;55.90
4209;DHT22;36320;48.860;2.380;2023-03-19T15:43:38;16.20;55.60
4209;DHT22;36320;48.860;2.380;2023-03-19T15:46:09;16.10;56.10
4209;DHT22;36320;48.860;2.380;2023-03-19T15:51:25;16.40;56.30
4209;DHT22;36320;48.860;2.380;2023-03-19T15:53:52;16.80;56.20
4209;DHT22;36320;48.860;2.380;2023-03-19T15:56:19;16.30;55.10
4209;DHT22;36320;48.860;2.380;2023-03-19T15:58:50;17.10;55.60
4209;DHT22;36320;48.860;2.380;2023-03-19T16:01:19;16.80;55.20
4209;DHT22;36320;48.860;2.380;2023-03-19T16:03:55;16.80;54.70
4209;DHT22;36320;48.860;2.380;2023-03-19T16:06:27;16.80;54.20
4209;DHT22;36320;48.860;2.380;2023-03-19T16:08:55;16.80;53.70
4209;DHT22;36320;48.860;2.380;2023-03-19T16:11:34;16.70;52.90
4209;DHT22;36320;48.860;2.380;2023-03-19T16:14:18;16.50;52.20
4209;DHT22;36320;48.860;2.380;2023-03-19T16:16:47;16.30;52.10
4209;DHT22;36320;48.860;2.380;2023-03-19T16:19:47;16.20;51.90
4209;DHT22;36320;48.860;2.380;2023-03-19T16:22:22;16.20;51.50
4209;DHT22;36320;48.860;2.380;2023-03-19T16:24:51;16.20;51.30
4209;DHT22;36320;48.860;2.380;2023-03-19T16:27:21;16.10;50.80
4209;DHT22;36320;48.860;2.380;2023-03-19T16:29:58;16.40;51.10
